createdAt,value
2024-05-09T00:01:01.756Z,66.19
2024-05-09T00:02:03.621Z,66.06
2024-05-09T00:03:07.238Z,66.32
2024-05-09T00:04:09.218Z,65.76
2024-05-09T00:05:12.038Z,65.97
2024-05-09T00:06:14.040Z,66.35
2024-05-09T00:07:16.634Z,66.07
2024-05-09T00:08:18.018Z,65.84
2024-05-09T00:09:20.652Z,66.54
2024-05-09T00:10:32.634Z,66.73
2024-05-09T00:11:38.268Z,67.33
2024-05-09T00:12:39.900Z,67.58
2024-05-09T00:13:42.601Z,67.00
2024-05-09T00:14:44.236Z,67.49
2024-05-09T00:15:46.864Z,67.26
2024-05-09T00:16:48.700Z,67.64
2024-05-09T00:17:51.893Z,68.10
2024-05-09T00:18:54.372Z,68.02
2024-05-09T00:19:57.305Z,67.81
2024-05-09T00:20:58.666Z,68.12
2024-05-09T00:22:01.096Z,69.53
2024-05-09T00:23:03.304Z,69.25
2024-05-09T00:24:06.344Z,69.94
2024-05-09T00:25:07.939Z,70.25
2024-05-09T00:26:15.498Z,69.90
2024-05-09T00:27:17.184Z,70.42
2024-05-09T00:28:18.562Z,70.06
2024-05-09T00:29:22.494Z,71.05
2024-05-09T00:30:32.744Z,70.71
2024-05-09T00:31:37.781Z,71.16
2024-05-09T00:32:39.502Z,72.13
2024-05-09T00:33:42.566Z,72.27
2024-05-09T00:34:44.999Z,72.02
2024-05-09T00:35:47.695Z,72.11
2024-05-09T00:36:49.316Z,72.39
2024-05-09T00:37:51.933Z,72.61
2024-05-09T00:38:53.587Z,72.97
2024-05-09T00:39:56.220Z,73.32
2024-05-09T00:40:57.882Z,74.05
2024-05-09T00:42:01.978Z,74.11
2024-05-09T00:43:03.898Z,73.93
2024-05-09T00:44:07.264Z,74.37
2024-05-09T00:45:08.908Z,74.32
2024-05-09T00:46:12.075Z,74.99
2024-05-09T00:47:13.922Z,75.12
2024-05-09T00:48:19.879Z,74.92
2024-05-09T00:49:25.296Z,74.89
2024-05-09T00:50:35.241Z,74.91
2024-05-09T00:51:41.040Z,75.18
2024-05-09T00:52:46.230Z,76.52
2024-05-09T00:53:48.414Z,77.54
2024-05-09T00:54:51.186Z,77.92
2024-05-09T00:55:55.184Z,77.43
2024-05-09T00:56:57.635Z,77.91
2024-05-09T00:58:01.186Z,77.01
2024-05-09T00:59:04.210Z,78.10
2024-05-09T01:00:18.347Z,78.55
2024-05-09T01:01:29.803Z,78.08
2024-05-09T01:02:31.474Z,78.34
2024-05-09T01:03:33.404Z,78.95
2024-05-09T01:04:36.187Z,79.31
2024-05-09T01:05:38.367Z,80.21
2024-05-09T01:06:41.092Z,80.18
2024-05-09T01:07:42.915Z,80.70
2024-05-09T01:08:44.652Z,80.68
2024-05-09T01:09:47.377Z,80.18
2024-05-09T01:10:49.034Z,80.73
2024-05-09T01:11:51.803Z,80.84
2024-05-09T01:12:53.610Z,80.20
2024-05-09T01:13:57.650Z,80.01
2024-05-09T01:14:59.361Z,80.68
2024-05-09T01:16:02.611Z,80.44
2024-05-09T01:17:06.095Z,80.79
2024-05-09T01:18:12.025Z,80.17
2024-05-09T01:19:24.968Z,80.45
2024-05-09T01:20:37.220Z,79.93
2024-05-09T01:21:43.495Z,80.26
2024-05-09T01:22:47.550Z,80.12
2024-05-09T01:23:50.552Z,79.93
2024-05-09T01:24:53.207Z,80.13
2024-05-09T01:25:54.877Z,78.93
2024-05-09T01:26:57.533Z,78.95
2024-05-09T01:27:59.230Z,79.11
2024-05-09T01:29:02.079Z,79.24
2024-05-09T01:30:09.132Z,79.54
2024-05-09T01:31:14.828Z,78.93
2024-05-09T01:32:16.565Z,79.55
2024-05-09T01:33:19.066Z,79.16
2024-05-09T01:34:20.863Z,78.58
2024-05-09T01:35:23.879Z,78.58
2024-05-09T01:36:25.574Z,79.41
2024-05-09T01:37:28.237Z,78.75
2024-05-09T01:38:30.082Z,78.50
2024-05-09T01:39:33.316Z,78.92
2024-05-09T01:40:39.092Z,79.69
2024-05-09T01:41:41.862Z,80.21
2024-05-09T01:42:44.888Z,80.29
2024-05-09T01:43:46.287Z,80.02
2024-05-09T01:44:49.019Z,80.32
2024-05-09T01:45:50.595Z,80.33
2024-05-09T01:46:53.430Z,80.83
2024-05-09T01:47:54.939Z,80.55
2024-05-09T01:48:58.105Z,80.30
2024-05-09T01:49:59.688Z,80.26
2024-05-09T01:51:04.871Z,80.72
2024-05-09T01:52:06.628Z,80.33
2024-05-09T01:53:09.114Z,80.55
2024-05-09T01:54:11.810Z,80.62
2024-05-09T01:55:14.833Z,80.15
2024-05-09T01:56:17.542Z,79.60
2024-05-09T01:57:18.968Z,79.71
2024-05-09T01:58:21.648Z,79.73
2024-05-09T01:59:23.103Z,79.25
2024-05-09T02:00:34.496Z,79.73
2024-05-09T02:01:56.114Z,78.86
2024-05-09T02:03:00.747Z,79.17
2024-05-09T02:04:02.987Z,78.94
2024-05-09T02:05:06.595Z,79.38
2024-05-09T02:06:08.518Z,79.11
2024-05-09T02:07:11.348Z,78.72
2024-05-09T02:08:14.240Z,78.73
2024-05-09T02:09:16.621Z,78.92
2024-05-09T02:10:26.576Z,79.05
2024-05-09T02:11:41.162Z,78.98
2024-05-09T02:12:42.912Z,78.46
2024-05-09T02:13:45.587Z,78.59
2024-05-09T02:14:47.180Z,79.02
2024-05-09T02:15:51.134Z,78.39
2024-05-09T02:16:52.792Z,77.90
2024-05-09T02:17:55.779Z,77.42
2024-05-09T02:18:57.760Z,77.32
2024-05-09T02:20:00.709Z,77.01
2024-05-09T02:21:02.677Z,75.88
2024-05-09T02:22:05.358Z,76.63
2024-05-09T02:23:08.295Z,76.55
2024-05-09T02:24:11.009Z,76.70
2024-05-09T02:25:12.780Z,75.60
2024-05-09T02:26:15.562Z,76.72
2024-05-09T02:27:18.218Z,76.46
2024-05-09T02:28:19.933Z,76.28
2024-05-09T02:29:21.342Z,75.76
2024-05-09T02:30:31.081Z,76.22
2024-05-09T02:31:40.555Z,75.90
2024-05-09T02:32:43.605Z,74.68
2024-05-09T02:33:45.514Z,74.71
2024-05-09T02:34:47.183Z,75.41
2024-05-09T02:35:49.885Z,74.87
2024-05-09T02:36:54.890Z,75.58
2024-05-09T02:37:56.508Z,74.73
2024-05-09T02:38:58.118Z,74.85
2024-05-09T02:40:00.932Z,74.50
2024-05-09T02:41:02.372Z,74.16
2024-05-09T02:42:06.555Z,73.58
2024-05-09T02:43:11.497Z,73.18
2024-05-09T02:44:13.949Z,73.07
2024-05-09T02:45:15.621Z,73.29
2024-05-09T02:46:18.190Z,72.88
2024-05-09T02:47:19.966Z,72.39
2024-05-09T02:48:22.004Z,72.37
2024-05-09T02:49:23.684Z,71.94
2024-05-09T02:50:33.940Z,71.51
2024-05-09T02:51:40.089Z,71.42
2024-05-09T02:52:41.705Z,70.90
2024-05-09T02:53:43.367Z,70.77
2024-05-09T02:54:46.044Z,68.66
2024-05-09T02:55:47.464Z,69.99
2024-05-09T02:56:49.104Z,68.15
2024-05-09T02:57:52.075Z,69.01
2024-05-09T02:58:55.708Z,68.89
2024-05-09T02:59:57.358Z,67.80
2024-05-09T03:00:59.034Z,68.39
2024-05-09T03:02:00.893Z,67.75
2024-05-09T03:03:04.993Z,67.77
2024-05-09T03:04:07.037Z,67.72
2024-05-09T03:05:09.114Z,67.52
2024-05-09T03:06:10.513Z,67.30
2024-05-09T03:07:13.172Z,67.14
2024-05-09T03:08:15.000Z,67.12
2024-05-09T03:09:16.839Z,68.05
2024-05-09T03:10:22.559Z,68.00
2024-05-09T03:11:31.127Z,68.96
2024-05-09T03:12:33.620Z,69.70
2024-05-09T03:13:40.482Z,68.56
2024-05-09T03:14:42.090Z,68.53
2024-05-09T03:15:45.718Z,68.38
2024-05-09T03:16:47.549Z,68.86
2024-05-09T03:17:49.219Z,69.03
2024-05-09T03:18:51.053Z,69.22
2024-05-09T03:19:53.852Z,68.57
2024-05-09T03:20:55.552Z,68.56
2024-05-09T03:21:57.976Z,67.81
2024-05-09T03:23:00.670Z,68.65
2024-05-09T03:24:02.326Z,67.57
2024-05-09T03:25:04.756Z,67.45
2024-05-09T03:26:09.657Z,66.74
2024-05-09T03:27:12.364Z,65.35
2024-05-09T03:28:13.976Z,65.44
2024-05-09T03:29:17.799Z,64.62
2024-05-09T03:30:29.566Z,64.09
2024-05-09T03:31:39.292Z,64.59
2024-05-09T03:32:42.764Z,64.73
2024-05-09T03:33:44.700Z,64.08
2024-05-09T03:34:46.475Z,63.54
2024-05-09T03:35:49.467Z,63.16
2024-05-09T03:36:52.296Z,62.33
2024-05-09T03:37:53.896Z,62.31
2024-05-09T03:38:57.361Z,61.53
2024-05-09T03:39:59.033Z,60.86
2024-05-09T03:41:01.700Z,61.58
2024-05-09T03:42:04.080Z,61.14
2024-05-09T03:43:06.657Z,59.49
2024-05-09T03:44:08.498Z,61.08
2024-05-09T03:45:11.671Z,60.16
2024-05-09T03:46:14.357Z,61.20
2024-05-09T03:47:16.034Z,60.98
2024-05-09T03:48:18.192Z,60.55
2024-05-09T03:49:21.380Z,60.60
2024-05-09T03:50:30.145Z,60.74
2024-05-09T03:51:35.615Z,60.08
2024-05-09T03:52:37.319Z,60.07
2024-05-09T03:53:40.105Z,59.60
2024-05-09T03:54:45.459Z,59.66
2024-05-09T03:55:47.104Z,59.47
2024-05-09T03:56:48.735Z,59.75
2024-05-09T03:57:51.430Z,59.32
2024-05-09T03:58:53.687Z,59.80
2024-05-09T03:59:55.524Z,59.18
2024-05-09T04:00:58.857Z,57.92
2024-05-09T04:02:01.782Z,59.28
2024-05-09T04:03:04.433Z,58.72
2024-05-09T04:04:08.117Z,58.10
2024-05-09T04:05:10.752Z,57.97
2024-05-09T04:06:19.276Z,57.52
2024-05-09T04:07:20.948Z,57.67
2024-05-09T04:08:22.375Z,57.87
2024-05-09T04:09:24.944Z,57.68
2024-05-09T04:10:31.286Z,56.88
2024-05-09T04:11:35.717Z,56.26
2024-05-09T04:12:37.641Z,56.02
2024-05-09T04:13:40.445Z,55.80
2024-05-09T04:14:42.070Z,55.96
2024-05-09T04:15:43.671Z,55.12
2024-05-09T04:16:46.700Z,56.55
2024-05-09T04:17:50.316Z,56.01
2024-05-09T04:18:52.142Z,55.87
2024-05-09T04:19:54.204Z,56.31
2024-05-09T04:20:55.993Z,56.24
2024-05-09T04:21:59.097Z,57.78
2024-05-09T04:23:00.800Z,56.17
2024-05-09T04:24:02.599Z,55.92
2024-05-09T04:25:05.098Z,56.75
2024-05-09T04:26:07.850Z,55.45
2024-05-09T04:27:09.479Z,54.80
2024-05-09T04:28:11.127Z,55.59
2024-05-09T04:29:12.722Z,55.43
2024-05-09T04:30:21.893Z,54.57
2024-05-09T04:31:35.778Z,56.26
2024-05-09T04:32:38.834Z,56.26
2024-05-09T04:33:41.670Z,55.01
2024-05-09T04:34:43.362Z,54.87
2024-05-09T04:35:45.564Z,54.39
2024-05-09T04:36:47.252Z,54.05
2024-05-09T04:37:49.866Z,53.37
2024-05-09T04:38:51.494Z,53.98
2024-05-09T04:39:53.603Z,54.06
2024-05-09T04:40:55.420Z,53.19
2024-05-09T04:41:58.143Z,53.25
2024-05-09T04:43:00.034Z,53.31
2024-05-09T04:44:01.837Z,51.76
2024-05-09T04:45:03.935Z,51.77
2024-05-09T04:46:06.533Z,52.06
2024-05-09T04:47:08.160Z,51.63
2024-05-09T04:48:11.564Z,53.48
2024-05-09T04:49:14.226Z,51.01
2024-05-09T04:50:25.327Z,51.42
2024-05-09T04:51:35.106Z,50.35
2024-05-09T04:52:36.723Z,50.38
2024-05-09T04:53:39.505Z,49.27
2024-05-09T04:54:41.314Z,48.89
2024-05-09T04:55:43.017Z,49.38
2024-05-09T04:56:44.673Z,49.94
2024-05-09T04:57:47.315Z,50.22
2024-05-09T04:58:48.947Z,49.43
2024-05-09T04:59:50.616Z,49.23
2024-05-09T05:00:53.274Z,49.92
2024-05-09T05:01:54.938Z,48.88
2024-05-09T05:02:56.849Z,49.99
2024-05-09T05:04:00.236Z,49.13
2024-05-09T05:05:03.087Z,49.53
2024-05-09T05:06:05.056Z,50.14
2024-05-09T05:07:06.734Z,49.54
2024-05-09T05:08:10.405Z,49.21
2024-05-09T05:09:13.004Z,48.22
2024-05-09T05:10:21.438Z,46.87
2024-05-09T05:11:27.487Z,48.16
2024-05-09T05:12:47.645Z,48.84
2024-05-09T05:13:50.336Z,46.75
2024-05-09T05:14:52.044Z,47.47
2024-05-09T05:15:54.815Z,46.50
2024-05-09T05:16:57.183Z,46.18
2024-05-09T05:17:58.786Z,45.43
2024-05-09T05:19:02.143Z,45.70
2024-05-09T05:20:05.970Z,44.79
2024-05-09T05:21:12.061Z,44.18
2024-05-09T05:22:13.776Z,44.09
2024-05-09T05:23:19.945Z,44.37
2024-05-09T05:24:22.786Z,44.03
2024-05-09T05:25:24.485Z,43.88
2024-05-09T05:26:26.599Z,44.50
2024-05-09T05:27:29.784Z,44.26
2024-05-09T05:28:32.484Z,43.18
2024-05-09T05:29:34.211Z,44.10
2024-05-09T05:30:36.740Z,44.90
2024-05-09T05:31:39.377Z,43.66
2024-05-09T05:32:41.332Z,44.32
2024-05-09T05:33:42.879Z,44.26
2024-05-09T05:34:45.761Z,44.55
2024-05-09T05:35:48.461Z,44.37
2024-05-09T05:36:50.108Z,43.40
2024-05-09T05:37:51.925Z,43.70
2024-05-09T05:38:54.700Z,43.66
2024-05-09T05:40:36.036Z,43.47
2024-05-09T05:41:39.813Z,43.39
2024-05-09T05:42:42.950Z,43.32
2024-05-09T05:43:44.651Z,44.52
2024-05-09T05:44:46.447Z,44.17
2024-05-09T05:45:48.156Z,43.30
2024-05-09T05:46:50.941Z,43.45
2024-05-09T05:47:53.713Z,44.55
2024-05-09T05:48:55.721Z,43.74
2024-05-09T05:49:58.940Z,45.12
2024-05-09T05:51:04.818Z,44.29
2024-05-09T05:52:06.691Z,43.48
2024-05-09T05:53:09.932Z,43.38
2024-05-09T05:54:12.090Z,43.59
2024-05-09T05:55:14.853Z,44.55
2024-05-09T05:56:16.634Z,44.28
2024-05-09T05:57:18.480Z,43.37
2024-05-09T05:58:21.415Z,42.75
2024-05-09T05:59:23.336Z,44.64
2024-05-09T06:00:33.981Z,45.10
2024-05-09T06:01:39.236Z,45.67
2024-05-09T06:02:41.407Z,44.70
2024-05-09T06:03:44.107Z,44.44
2024-05-09T06:04:46.105Z,44.27
2024-05-09T06:05:49.205Z,44.45
2024-05-09T06:06:51.257Z,44.39
2024-05-09T06:07:53.984Z,44.87
2024-05-09T06:08:55.369Z,44.86
2024-05-09T06:09:57.020Z,43.28
2024-05-09T06:10:59.696Z,45.42
2024-05-09T06:12:01.698Z,45.30
2024-05-09T06:13:03.845Z,44.95
2024-05-09T06:14:05.853Z,45.29
2024-05-09T06:15:08.915Z,45.10
2024-05-09T06:16:10.488Z,44.53
2024-05-09T06:17:12.330Z,44.57
2024-05-09T06:18:15.328Z,43.96
2024-05-09T06:19:17.831Z,43.42
2024-05-09T06:20:27.395Z,43.40
2024-05-09T06:21:37.539Z,42.75
2024-05-09T06:22:40.150Z,43.96
2024-05-09T06:23:44.776Z,43.94
2024-05-09T06:24:46.246Z,43.89
2024-05-09T06:25:48.822Z,43.96
2024-05-09T06:26:50.497Z,43.20
2024-05-09T06:27:52.107Z,44.29
2024-05-09T06:28:53.793Z,43.52
2024-05-09T06:29:56.477Z,43.70
2024-05-09T06:31:00.646Z,44.09
2024-05-09T06:32:02.792Z,44.88
2024-05-09T06:33:05.695Z,43.91
2024-05-09T06:34:09.011Z,44.85
2024-05-09T06:35:10.905Z,45.37
2024-05-09T06:36:12.831Z,45.83
2024-05-09T06:37:15.832Z,45.16
2024-05-09T06:38:18.607Z,44.97
2024-05-09T06:39:20.043Z,44.89
2024-05-09T06:40:25.861Z,44.14
2024-05-09T06:41:36.169Z,44.54
2024-05-09T06:42:38.769Z,43.83
2024-05-09T06:43:41.193Z,43.23
2024-05-09T06:44:42.533Z,42.42
2024-05-09T06:45:44.889Z,43.99
2024-05-09T06:46:47.622Z,41.77
2024-05-09T06:47:49.519Z,40.63
2024-05-09T06:48:51.634Z,40.35
2024-05-09T06:49:53.434Z,39.27
2024-05-09T06:50:56.207Z,40.84
2024-05-09T06:51:57.694Z,39.07
2024-05-09T06:53:00.807Z,37.58
2024-05-09T06:54:02.230Z,39.35
2024-05-09T06:55:05.376Z,36.58
2024-05-09T06:56:07.286Z,35.54
2024-05-09T06:57:08.928Z,35.53
2024-05-09T06:58:10.503Z,34.90
2024-05-09T06:59:13.214Z,34.23
2024-05-09T07:00:22.855Z,35.87
2024-05-09T07:01:32.185Z,36.08
2024-05-09T07:02:35.034Z,37.15
2024-05-09T07:03:36.889Z,35.91
2024-05-09T07:04:38.631Z,35.41
2024-05-09T07:05:40.513Z,35.42
2024-05-09T07:06:43.374Z,35.54
2024-05-09T07:07:45.044Z,34.17
2024-05-09T07:08:48.965Z,35.21
2024-05-09T07:09:53.027Z,35.35
2024-05-09T07:10:55.826Z,34.96
2024-05-09T07:11:57.645Z,35.87
2024-05-09T07:12:59.350Z,35.76
2024-05-09T07:14:00.984Z,35.56
2024-05-09T07:15:02.927Z,35.79
2024-05-09T07:16:05.956Z,36.90
2024-05-09T07:17:07.700Z,38.70
2024-05-09T07:18:11.189Z,38.87
2024-05-09T07:19:13.286Z,36.79
2024-05-09T07:20:23.588Z,37.96
2024-05-09T07:21:33.610Z,37.96
2024-05-09T07:22:35.512Z,37.23
2024-05-09T07:23:38.600Z,37.01
2024-05-09T07:24:41.634Z,36.41
2024-05-09T07:25:43.219Z,36.20
2024-05-09T07:26:45.977Z,37.33
2024-05-09T07:27:47.586Z,38.44
2024-05-09T07:28:49.332Z,36.80
2024-05-09T07:29:52.254Z,36.54
2024-05-09T07:30:53.630Z,34.34
2024-05-09T07:31:55.328Z,32.40
2024-05-09T07:32:57.083Z,31.71
2024-05-09T07:34:00.633Z,31.06
2024-05-09T07:35:02.576Z,32.10
2024-05-09T07:36:04.729Z,32.46
2024-05-09T07:37:11.434Z,33.74
2024-05-09T07:38:14.171Z,32.57
2024-05-09T07:39:15.540Z,33.22
2024-05-09T07:40:28.473Z,32.67
2024-05-09T07:41:37.893Z,31.42
2024-05-09T07:42:39.472Z,30.98
2024-05-09T07:43:43.202Z,31.13
2024-05-09T07:44:44.856Z,27.04
2024-05-09T07:45:52.203Z,28.51
2024-05-09T07:53:30.090Z,26.72
2024-05-09T07:53:47.334Z,26.21
2024-05-09T07:54:53.693Z,25.73
2024-05-09T07:55:57.622Z,26.95
2024-05-09T07:56:59.541Z,27.13
2024-05-09T07:58:02.985Z,26.38
2024-05-09T07:59:04.682Z,26.58
2024-05-09T08:00:08.263Z,27.96
2024-05-09T08:01:14.291Z,25.50
2024-05-09T08:02:16.327Z,26.03
2024-05-09T08:03:18.263Z,27.79
2024-05-09T08:04:20.867Z,28.25
2024-05-09T08:05:24.626Z,28.45
2024-05-09T08:06:26.487Z,27.74
2024-05-09T08:07:28.523Z,28.99
2024-05-09T08:08:31.233Z,28.02
2024-05-09T08:09:35.582Z,28.12
2024-05-09T08:10:38.436Z,27.86
2024-05-09T08:11:41.452Z,28.46
2024-05-09T08:12:43.997Z,27.67
2024-05-09T08:13:46.787Z,27.91
2024-05-09T08:14:48.793Z,29.27
2024-05-09T08:15:51.978Z,29.04
2024-05-09T08:16:53.906Z,30.64
2024-05-09T08:17:55.797Z,28.94
2024-05-09T08:18:57.768Z,29.07
2024-05-09T08:20:03.004Z,30.64
2024-05-09T08:21:05.971Z,27.86
2024-05-09T08:22:08.220Z,28.20
2024-05-09T08:23:10.710Z,30.91
2024-05-09T08:24:13.429Z,30.33
2024-05-09T08:25:15.300Z,31.66
2024-05-09T08:26:17.114Z,31.08
2024-05-09T08:27:20.393Z,31.77
2024-05-09T08:28:23.292Z,33.10
2024-05-09T08:29:25.066Z,32.78
2024-05-09T08:30:33.182Z,33.02
2024-05-09T08:31:39.780Z,32.74
2024-05-09T08:32:41.589Z,32.80
2024-05-09T08:33:44.144Z,32.13
2024-05-09T08:34:46.037Z,31.24
2024-05-09T08:35:49.013Z,30.88
2024-05-09T08:36:50.662Z,29.62
2024-05-09T08:37:52.449Z,32.75
2024-05-09T08:38:54.011Z,32.50
2024-05-09T08:39:57.352Z,31.14
2024-05-09T08:41:03.746Z,31.21
2024-05-09T08:42:06.996Z,30.92
2024-05-09T08:43:12.531Z,31.52
2024-05-09T08:44:19.043Z,31.26
2024-05-09T08:45:21.293Z,31.89
2024-05-09T08:46:24.710Z,32.49
2024-05-09T08:47:30.467Z,32.02
2024-05-09T08:48:36.461Z,30.65
2024-05-09T08:49:41.551Z,30.85
2024-05-09T08:50:44.232Z,31.72
2024-05-09T08:51:47.589Z,33.59
2024-05-09T08:52:49.416Z,31.84
2024-05-09T08:53:51.246Z,31.67
2024-05-09T08:54:53.630Z,32.16
2024-05-09T08:56:01.606Z,34.51
2024-05-09T08:57:05.229Z,31.38
2024-05-09T08:58:12.935Z,31.54
2024-05-09T08:59:20.591Z,29.92
2024-05-09T09:00:29.802Z,30.33
2024-05-09T09:01:41.295Z,27.77
2024-05-09T09:02:46.132Z,29.86
2024-05-09T09:03:49.614Z,29.53
2024-05-09T09:05:04.609Z,32.05
2024-05-09T09:06:09.441Z,32.44
2024-05-09T09:07:13.421Z,30.31
2024-05-09T09:08:15.401Z,29.48
2024-05-09T09:09:17.276Z,33.27
2024-05-09T09:10:29.052Z,30.57
2024-05-09T09:11:34.451Z,34.17
2024-05-09T09:12:36.240Z,32.70
2024-05-09T09:13:39.282Z,32.40
2024-05-09T09:14:41.912Z,32.21
2024-05-09T09:15:46.382Z,32.52
2024-05-09T09:16:48.054Z,33.05
2024-05-09T09:17:54.836Z,32.85
2024-05-09T09:18:58.039Z,33.35
2024-05-09T09:19:59.876Z,32.86
2024-05-09T09:21:01.845Z,33.30
2024-05-09T09:22:05.721Z,32.82
2024-05-09T09:23:08.773Z,33.96
2024-05-09T09:24:10.428Z,32.41
2024-05-09T09:25:12.208Z,33.71
2024-05-09T09:26:15.685Z,32.76
2024-05-09T09:27:19.049Z,31.44
2024-05-09T09:28:22.014Z,31.83
2024-05-09T09:29:25.113Z,31.49
2024-05-09T09:30:35.304Z,32.63
2024-05-09T09:31:41.041Z,31.09
2024-05-09T09:32:42.805Z,32.06
2024-05-09T09:33:45.110Z,30.22
2024-05-09T09:34:47.153Z,31.42
2024-05-09T09:35:50.043Z,32.22
2024-05-09T09:36:56.270Z,31.61
2024-05-09T09:38:01.961Z,32.38
2024-05-09T09:39:04.794Z,33.27
2024-05-09T09:40:13.169Z,31.14
2024-05-09T09:41:18.768Z,32.15
2024-05-09T09:42:22.229Z,31.17
2024-05-09T09:43:25.825Z,30.56
2024-05-09T09:44:31.002Z,30.04
2024-05-09T09:45:35.378Z,30.25
2024-05-09T09:46:38.624Z,28.42
2024-05-09T09:47:41.867Z,28.05
2024-05-09T09:48:45.617Z,28.37
2024-05-09T09:49:49.817Z,28.99
2024-05-09T09:50:51.983Z,28.68
2024-05-09T09:51:54.902Z,30.59
2024-05-09T09:53:00.620Z,28.95
2024-05-09T09:54:04.940Z,28.47
2024-05-09T09:55:09.914Z,29.01
2024-05-09T09:56:13.324Z,28.27
2024-05-09T09:57:18.309Z,30.39
2024-05-09T09:58:21.827Z,31.49
2024-05-09T09:59:25.756Z,29.42
2024-05-09T10:00:33.505Z,29.11
2024-05-09T10:01:36.091Z,29.75
2024-05-09T10:02:39.771Z,30.71
2024-05-09T10:03:41.886Z,31.18
2024-05-09T10:04:43.583Z,30.77
2024-05-09T10:05:47.360Z,31.48
2024-05-09T10:06:54.131Z,30.55
2024-05-09T10:07:58.189Z,31.71
2024-05-09T10:09:00.506Z,29.93
2024-05-09T10:10:02.599Z,30.63
2024-05-09T10:11:06.152Z,32.02
2024-05-09T10:12:09.667Z,29.92
2024-05-09T10:13:11.437Z,30.71
2024-05-09T10:14:13.135Z,29.92
2024-05-09T10:15:19.817Z,29.97
2024-05-09T10:16:23.180Z,31.53
2024-05-09T10:17:25.046Z,29.78
2024-05-09T10:18:35.830Z,29.59
2024-05-09T10:19:38.706Z,31.48
2024-05-09T10:20:41.498Z,30.32
2024-05-09T10:21:45.799Z,30.40
2024-05-09T10:22:49.286Z,29.75
2024-05-09T10:23:58.862Z,29.35
2024-05-09T10:25:05.191Z,30.08
2024-05-09T10:26:10.201Z,29.95
2024-05-09T10:27:11.866Z,30.76
2024-05-09T10:28:15.556Z,30.15
2024-05-09T10:29:18.708Z,30.13
2024-05-09T10:30:29.603Z,29.76
2024-05-09T10:31:40.984Z,30.54
2024-05-09T10:32:45.105Z,30.34
2024-05-09T10:33:48.928Z,30.87
2024-05-09T10:35:04.874Z,30.19
2024-05-09T10:36:12.595Z,29.35
2024-05-09T10:37:15.666Z,29.52
2024-05-09T10:38:17.403Z,29.98
2024-05-09T10:39:19.508Z,29.62
2024-05-09T10:41:24.484Z,29.95
2024-05-09T10:42:26.742Z,30.19
2024-05-09T10:43:30.519Z,31.10
2024-05-09T10:44:37.987Z,30.23
2024-05-09T10:45:39.682Z,30.59
2024-05-09T10:46:44.271Z,29.84
2024-05-09T10:47:47.044Z,30.09
2024-05-09T10:48:50.123Z,30.38
2024-05-09T10:49:53.201Z,29.04
2024-05-09T10:50:56.056Z,28.78
2024-05-09T10:51:57.725Z,29.32
2024-05-09T10:52:59.473Z,28.10
2024-05-09T10:54:01.270Z,30.40
2024-05-09T10:55:05.788Z,30.82
2024-05-09T10:56:07.982Z,28.96
2024-05-09T10:57:09.689Z,30.84
2024-05-09T10:58:16.440Z,30.15
2024-05-09T10:59:18.142Z,29.12
2024-05-09T11:00:27.593Z,29.15
2024-05-09T11:01:35.737Z,27.97
2024-05-09T11:02:38.884Z,29.58
2024-05-09T11:03:46.782Z,28.18
2024-05-09T11:04:49.113Z,28.01
2024-05-09T11:05:51.777Z,28.12
2024-05-09T11:06:55.275Z,30.36
2024-05-09T11:07:58.081Z,29.93
2024-05-09T11:09:18.295Z,29.59
2024-05-09T11:11:23.461Z,30.20
2024-05-09T11:12:25.764Z,29.84
2024-05-09T11:13:28.024Z,29.30
2024-05-09T11:14:29.621Z,30.00
2024-05-09T11:15:38.471Z,28.84
2024-05-09T11:16:40.253Z,31.70
2024-05-09T11:17:43.352Z,29.77
2024-05-09T11:18:53.502Z,30.74
2024-05-09T11:19:54.996Z,28.92
2024-05-09T11:20:57.696Z,31.34
2024-05-09T11:22:00.870Z,29.91
2024-05-09T11:23:04.115Z,29.84
2024-05-09T11:24:09.598Z,31.09
2024-05-09T11:25:12.869Z,29.94
2024-05-09T11:26:18.267Z,30.74
2024-05-09T11:27:20.691Z,29.74
2024-05-09T11:28:24.767Z,29.75
2024-05-09T11:29:36.541Z,30.19
2024-05-09T11:30:38.896Z,31.53
2024-05-09T11:31:45.282Z,31.39
2024-05-09T11:32:48.772Z,30.77
2024-05-09T11:33:54.360Z,30.32
2024-05-09T11:34:55.871Z,30.43
2024-05-09T11:35:57.714Z,30.27
2024-05-09T11:36:59.434Z,30.99
2024-05-09T11:38:01.365Z,30.22
2024-05-09T11:39:04.000Z,29.70
2024-05-09T11:40:11.638Z,29.76
2024-05-09T11:41:18.525Z,28.80
2024-05-09T11:42:21.435Z,29.76
2024-05-09T11:43:23.006Z,31.03
2024-05-09T11:44:25.418Z,29.75
2024-05-09T11:45:27.118Z,29.06
2024-05-09T11:46:29.574Z,29.09
2024-05-09T11:47:31.559Z,29.30
2024-05-09T11:48:35.180Z,30.04
2024-05-09T11:49:38.291Z,28.58
2024-05-09T11:50:39.870Z,29.97
2024-05-09T11:51:41.561Z,29.83
2024-05-09T11:52:44.278Z,30.30
2024-05-09T11:53:45.980Z,29.85
2024-05-09T11:54:47.602Z,29.86
2024-05-09T11:55:49.355Z,30.59
2024-05-09T11:56:50.755Z,29.61
2024-05-09T11:57:53.547Z,29.14
2024-05-09T11:58:55.304Z,29.21
2024-05-09T11:59:56.960Z,29.25
2024-05-09T12:00:59.589Z,29.08
2024-05-09T12:02:02.481Z,28.48
2024-05-09T12:03:05.760Z,29.83
2024-05-09T12:04:09.488Z,29.25
2024-05-09T12:05:11.377Z,28.86
2024-05-09T12:06:14.056Z,29.84
2024-05-09T12:07:16.561Z,28.69
2024-05-09T12:08:18.610Z,29.25
2024-05-09T12:09:20.676Z,29.86
2024-05-09T12:10:32.065Z,28.96
2024-05-09T12:11:36.227Z,28.34
2024-05-09T12:12:37.962Z,29.37
2024-05-09T12:13:39.584Z,29.31
2024-05-09T12:14:42.445Z,29.46
2024-05-09T12:15:44.263Z,27.96
2024-05-09T12:16:46.070Z,29.29
2024-05-09T12:17:50.732Z,28.84
2024-05-09T12:18:53.800Z,27.36
2024-05-09T12:19:57.038Z,28.16
2024-05-09T12:20:58.495Z,29.18
2024-05-09T12:22:00.195Z,28.40
2024-05-09T12:23:02.971Z,29.13
2024-05-09T12:24:04.950Z,29.15
2024-05-09T12:25:07.162Z,28.22
2024-05-09T12:26:09.767Z,28.41
2024-05-09T12:27:12.371Z,28.21
2024-05-09T12:28:15.167Z,27.80
2024-05-09T12:29:17.036Z,27.63
2024-05-09T12:30:29.079Z,27.54
2024-05-09T12:31:38.901Z,27.73
2024-05-09T12:32:40.585Z,27.51
2024-05-09T12:33:42.374Z,26.26
2024-05-09T12:34:44.315Z,26.46
2024-05-09T12:35:50.834Z,26.64
2024-05-09T12:36:53.526Z,27.09
2024-05-09T12:37:55.271Z,25.08
2024-05-09T12:38:57.042Z,26.53
2024-05-09T12:39:59.837Z,28.37
2024-05-09T12:41:01.530Z,27.06
2024-05-09T12:42:03.874Z,26.93
2024-05-09T12:43:06.848Z,27.20
2024-05-09T12:44:09.558Z,26.09
2024-05-09T12:45:10.958Z,25.70
2024-05-09T12:46:12.764Z,26.57
2024-05-09T12:47:14.720Z,25.98
2024-05-09T12:48:17.454Z,26.35
2024-05-09T12:49:23.197Z,27.59
2024-05-09T12:50:31.520Z,25.02
2024-05-09T12:51:38.200Z,24.93
2024-05-09T12:52:39.794Z,24.88
2024-05-09T12:53:41.486Z,25.51
2024-05-09T12:54:43.166Z,24.98
2024-05-09T12:55:53.549Z,24.26
2024-05-09T12:56:59.124Z,24.27
2024-05-09T12:58:00.886Z,25.53
2024-05-09T12:59:02.625Z,25.04
2024-05-09T13:00:07.347Z,25.00
2024-05-09T13:01:11.032Z,25.56
2024-05-09T13:02:14.214Z,23.70
2024-05-09T13:03:15.868Z,23.55
2024-05-09T13:04:19.169Z,24.81
2024-05-09T13:05:20.719Z,26.41
2024-05-09T13:06:22.424Z,24.49
2024-05-09T13:07:29.416Z,25.74
2024-05-09T13:08:31.273Z,25.73
2024-05-09T13:09:33.665Z,25.00
2024-05-09T13:10:35.882Z,25.77
2024-05-09T13:11:38.662Z,24.93
2024-05-09T13:12:40.303Z,24.85
2024-05-09T13:13:41.935Z,25.03
2024-05-09T13:14:44.579Z,24.87
2024-05-09T13:15:46.348Z,24.62
2024-05-09T13:16:48.534Z,24.48
2024-05-09T13:17:50.441Z,24.12
2024-05-09T13:18:56.108Z,24.19
2024-05-09T13:19:57.993Z,24.20
2024-05-09T13:20:59.667Z,24.39
2024-05-09T13:22:01.458Z,24.32
2024-05-09T13:23:07.996Z,24.83
2024-05-09T13:24:10.300Z,24.68
2024-05-09T13:25:12.210Z,24.49
2024-05-09T13:26:13.980Z,24.98
2024-05-09T13:27:16.715Z,23.66
2024-05-09T13:28:18.426Z,24.07
2024-05-09T13:29:20.381Z,24.98
2024-05-09T13:30:29.637Z,24.97
2024-05-09T13:31:39.972Z,24.04
2024-05-09T13:32:41.758Z,25.29
2024-05-09T13:33:44.571Z,25.48
2024-05-09T13:34:46.232Z,25.18
2024-05-09T13:35:50.562Z,23.98
2024-05-09T13:36:53.727Z,23.89
2024-05-09T13:37:55.332Z,24.30
2024-05-09T13:38:58.560Z,25.43
2024-05-09T13:40:01.540Z,24.79
2024-05-09T13:41:03.658Z,24.05
2024-05-09T13:42:05.548Z,25.32
2024-05-09T13:43:07.383Z,25.04
2024-05-09T13:44:10.561Z,25.45
2024-05-09T13:45:12.418Z,25.66
2024-05-09T13:46:14.364Z,24.95